sensor_id;sensor_type;location;lat;lon;timestamp;P1;durP1;ratioP1;P2;durP2;ratioP2
8952;SDS011;4511;50.890;8.054;2023-03-13T00:01:35;16.53;;;4.87;;
8952;SDS011;4511;50.890;8.054;2023-03-13T00:04:03;16.13;;;4.50;;
8952;SDS011;4511;50.890;8.054;2023-03-13T00:06:30;17.17;;;5.13;;
8952;SDS011;4511;50.890;8.054;2023-03-13T00:08:59;17.37;;;5.17;;
8952;SDS011;4511;50.890;8.054;2023-03-13T00:11:28;15.53;;;4.63;;
8952;SDS011;4511;50.890;8.054;2023-03-13T00:13:55;19.33;;;5.13;;
8952;SDS011;4511;50.890;8.054;2023-03-13T00:16:23;13.93;;;4.90;;
8952;SDS011;4511;50.890;8.054;2023-03-13T00:18:51;19.73;;;5.40;;
8952;SDS011;4511;50.890;8.054;2023-03-13T00:21:20;15.70;;;4.90;;
8952;SDS011;4511;50.890;8.054;2023-03-13T00:23:49;16.17;;;5.10;;
8952;SDS011;4511;50.890;8.054;2023-03-13T00:26:16;18.00;;;4.87;;
8952;SDS011;4511;50.890;8.054;2023-03-13T00:28:46;20.77;;;4.93;;
8952;SDS011;4511;50.890;8.054;2023-03-13T00:31:15;17.13;;;4.60;;
8952;SDS011;4511;50.890;8.054;2023-03-13T00:33:44;16.53;;;4.80;;
8952;SDS011;4511;50.890;8.054;2023-03-13T00:36:13;16.20;;;4.60;;
8952;SDS011;4511;50.890;8.054;2023-03-13T00:38:40;17.63;;;5.10;;
8952;SDS011;4511;50.890;8.054;2023-03-13T00:41:09;17.00;;;4.47;;
8952;SDS011;4511;50.890;8.054;2023-03-13T00:43:37;17.63;;;5.70;;
8952;SDS011;4511;50.890;8.054;2023-03-13T00:46:06;17.63;;;4.87;;
8952;SDS011;4511;50.890;8.054;2023-03-13T00:48:33;12.60;;;4.67;;
8952;SDS011;4511;50.890;8.054;2023-03-13T00:51:00;16.50;;;4.60;;
8952;SDS011;4511;50.890;8.054;2023-03-13T00:53:28;16.27;;;4.60;;
8952;SDS011;4511;50.890;8.054;2023-03-13T00:55:56;18.00;;;5.03;;
8952;SDS011;4511;50.890;8.054;2023-03-13T00:58:24;17.83;;;4.63;;
8952;SDS011;4511;50.890;8.054;2023-03-13T01:00:52;23.07;;;5.53;;
8952;SDS011;4511;50.890;8.054;2023-03-13T01:03:22;15.87;;;4.83;;
8952;SDS011;4511;50.890;8.054;2023-03-13T01:05:56;15.07;;;4.63;;
8952;SDS011;4511;50.890;8.054;2023-03-13T01:08:24;16.97;;;5.40;;
8952;SDS011;4511;50.890;8.054;2023-03-13T01:10:56;16.90;;;4.67;;
8952;SDS011;4511;50.890;8.054;2023-03-13T01:13:23;21.53;;;5.70;;
8952;SDS011;4511;50.890;8.054;2023-03-13T01:15:50;17.43;;;4.97;;
8952;SDS011;4511;50.890;8.054;2023-03-13T01:18:16;20.43;;;4.90;;
8952;SDS011;4511;50.890;8.054;2023-03-13T01:20:44;18.53;;;4.60;;
8952;SDS011;4511;50.890;8.054;2023-03-13T01:23:13;20.33;;;5.23;;
8952;SDS011;4511;50.890;8.054;2023-03-13T01:25:39;15.33;;;4.60;;
8952;SDS011;4511;50.890;8.054;2023-03-13T01:28:06;12.50;;;4.40;;
8952;SDS011;4511;50.890;8.054;2023-03-13T01:30:33;19.30;;;4.73;;
8952;SDS011;4511;50.890;8.054;2023-03-13T01:33:00;16.23;;;4.73;;
8952;SDS011;4511;50.890;8.054;2023-03-13T01:35:27;17.87;;;4.43;;
8952;SDS011;4511;50.890;8.054;2023-03-13T01:37:55;14.77;;;4.77;;
8952;SDS011;4511;50.890;8.054;2023-03-13T01:40:22;16.40;;;4.67;;
8952;SDS011;4511;50.890;8.054;2023-03-13T01:42:49;19.83;;;5.33;;
8952;SDS011;4511;50.890;8.054;2023-03-13T01:48:21;11.77;;;4.53;;
8952;SDS011;4511;50.890;8.054;2023-03-13T01:50:52;19.10;;;5.07;;
8952;SDS011;4511;50.890;8.054;2023-03-13T01:53:21;15.77;;;4.67;;
8952;SDS011;4511;50.890;8.054;2023-03-13T01:55:49;15.13;;;4.53;;
8952;SDS011;4511;50.890;8.054;2023-03-13T01:58:16;16.90;;;4.90;;
8952;SDS011;4511;50.890;8.054;2023-03-13T02:00:43;23.43;;;4.80;;
8952;SDS011;4511;50.890;8.054;2023-03-13T02:03:12;16.67;;;4.80;;
8952;SDS011;4511;50.890;8.054;2023-03-13T02:05:42;21.30;;;5.27;;
8952;SDS011;4511;50.890;8.054;2023-03-13T02:08:13;22.30;;;5.00;;
8952;SDS011;4511;50.890;8.054;2023-03-13T02:10:47;18.70;;;5.10;;
8952;SDS011;4511;50.890;8.054;2023-03-13T02:13:19;20.87;;;4.87;;
8952;SDS011;4511;50.890;8.054;2023-03-13T02:15:46;13.80;;;4.53;;
8952;SDS011;4511;50.890;8.054;2023-03-13T02:18:13;13.37;;;4.70;;
8952;SDS011;4511;50.890;8.054;2023-03-13T02:20:41;17.30;;;4.47;;
8952;SDS011;4511;50.890;8.054;2023-03-13T02:23:09;19.30;;;4.60;;
8952;SDS011;4511;50.890;8.054;2023-03-13T02:25:45;15.57;;;4.90;;
8952;SDS011;4511;50.890;8.054;2023-03-13T02:28:14;17.40;;;4.87;;
8952;SDS011;4511;50.890;8.054;2023-03-13T02:30:44;21.97;;;5.20;;
8952;SDS011;4511;50.890;8.054;2023-03-13T02:33:13;18.17;;;4.50;;
8952;SDS011;4511;50.890;8.054;2023-03-13T02:35:41;14.20;;;4.53;;
8952;SDS011;4511;50.890;8.054;2023-03-13T02:38:10;15.97;;;4.50;;
8952;SDS011;4511;50.890;8.054;2023-03-13T02:40:42;21.93;;;5.20;;
8952;SDS011;4511;50.890;8.054;2023-03-13T02:43:13;14.30;;;4.50;;
8952;SDS011;4511;50.890;8.054;2023-03-13T02:48:33;17.50;;;4.63;;
8952;SDS011;4511;50.890;8.054;2023-03-13T02:51:02;14.33;;;4.80;;
8952;SDS011;4511;50.890;8.054;2023-03-13T02:53:31;12.13;;;4.17;;
8952;SDS011;4511;50.890;8.054;2023-03-13T02:56:01;11.63;;;4.50;;
8952;SDS011;4511;50.890;8.054;2023-03-13T02:58:34;14.60;;;4.50;;
8952;SDS011;4511;50.890;8.054;2023-03-13T03:01:04;12.57;;;4.33;;
8952;SDS011;4511;50.890;8.054;2023-03-13T03:03:32;13.60;;;4.43;;
8952;SDS011;4511;50.890;8.054;2023-03-13T03:05:59;15.93;;;4.53;;
8952;SDS011;4511;50.890;8.054;2023-03-13T03:08:26;11.50;;;4.03;;
8952;SDS011;4511;50.890;8.054;2023-03-13T03:10:52;13.20;;;4.10;;
8952;SDS011;4511;50.890;8.054;2023-03-13T03:13:21;13.20;;;4.27;;
8952;SDS011;4511;50.890;8.054;2023-03-13T03:15:47;17.60;;;4.67;;
8952;SDS011;4511;50.890;8.054;2023-03-13T03:18:14;12.67;;;4.30;;
8952;SDS011;4511;50.890;8.054;2023-03-13T03:20:41;14.43;;;4.20;;
8952;SDS011;4511;50.890;8.054;2023-03-13T03:23:08;11.60;;;4.10;;
8952;SDS011;4511;50.890;8.054;2023-03-13T03:25:34;11.87;;;3.80;;
8952;SDS011;4511;50.890;8.054;2023-03-13T03:28:01;15.50;;;4.30;;
8952;SDS011;4511;50.890;8.054;2023-03-13T03:30:29;15.80;;;4.40;;
8952;SDS011;4511;50.890;8.054;2023-03-13T03:32:56;14.80;;;4.33;;
8952;SDS011;4511;50.890;8.054;2023-03-13T03:35:22;15.63;;;4.50;;
8952;SDS011;4511;50.890;8.054;2023-03-13T03:37:49;14.60;;;4.30;;
8952;SDS011;4511;50.890;8.054;2023-03-13T03:40:16;13.47;;;4.10;;
8952;SDS011;4511;50.890;8.054;2023-03-13T03:42:45;14.57;;;3.90;;
8952;SDS011;4511;50.890;8.054;2023-03-13T03:45:12;15.23;;;4.30;;
8952;SDS011;4511;50.890;8.054;2023-03-13T03:47:40;10.13;;;4.33;;
8952;SDS011;4511;50.890;8.054;2023-03-13T03:50:08;10.20;;;4.10;;
8952;SDS011;4511;50.890;8.054;2023-03-13T03:52:36;11.90;;;4.63;;
8952;SDS011;4511;50.890;8.054;2023-03-13T03:55:03;10.10;;;3.77;;
8952;SDS011;4511;50.890;8.054;2023-03-13T03:57:31;13.30;;;3.80;;
8952;SDS011;4511;50.890;8.054;2023-03-13T03:59:57;11.67;;;4.10;;
8952;SDS011;4511;50.890;8.054;2023-03-13T04:02:24;10.77;;;3.53;;
8952;SDS011;4511;50.890;8.054;2023-03-13T04:04:52;4.37;;;3.03;;
8952;SDS011;4511;50.890;8.054;2023-03-13T04:07:19;6.63;;;3.43;;
8952;SDS011;4511;50.890;8.054;2023-03-13T04:09:46;5.87;;;2.93;;
8952;SDS011;4511;50.890;8.054;2023-03-13T04:12:12;7.53;;;3.00;;
8952;SDS011;4511;50.890;8.054;2023-03-13T04:14:39;7.33;;;2.80;;
8952;SDS011;4511;50.890;8.054;2023-03-13T04:17:06;5.83;;;3.03;;
8952;SDS011;4511;50.890;8.054;2023-03-13T04:19:32;5.67;;;2.70;;
8952;SDS011;4511;50.890;8.054;2023-03-13T04:22:01;7.33;;;3.17;;
8952;SDS011;4511;50.890;8.054;2023-03-13T04:24:27;4.87;;;2.93;;
8952;SDS011;4511;50.890;8.054;2023-03-13T04:26:54;4.63;;;2.50;;
8952;SDS011;4511;50.890;8.054;2023-03-13T04:29:21;3.33;;;2.43;;
8952;SDS011;4511;50.890;8.054;2023-03-13T04:31:48;3.47;;;2.33;;
8952;SDS011;4511;50.890;8.054;2023-03-13T04:34:14;5.67;;;2.60;;
8952;SDS011;4511;50.890;8.054;2023-03-13T04:36:41;4.83;;;2.50;;
8952;SDS011;4511;50.890;8.054;2023-03-13T04:39:09;3.97;;;2.33;;
8952;SDS011;4511;50.890;8.054;2023-03-13T04:41:36;2.60;;;2.40;;
8952;SDS011;4511;50.890;8.054;2023-03-13T04:44:03;3.20;;;2.50;;
8952;SDS011;4511;50.890;8.054;2023-03-13T04:46:30;2.47;;;2.20;;
8952;SDS011;4511;50.890;8.054;2023-03-13T04:48:56;2.40;;;2.20;;
8952;SDS011;4511;50.890;8.054;2023-03-13T04:51:23;2.50;;;2.30;;
8952;SDS011;4511;50.890;8.054;2023-03-13T04:53:50;3.10;;;2.30;;
8952;SDS011;4511;50.890;8.054;2023-03-13T04:56:20;2.33;;;2.13;;
8952;SDS011;4511;50.890;8.054;2023-03-13T04:58:48;3.17;;;2.20;;
8952;SDS011;4511;50.890;8.054;2023-03-13T05:01:15;2.50;;;2.30;;
8952;SDS011;4511;50.890;8.054;2023-03-13T05:03:42;2.80;;;2.10;;
8952;SDS011;4511;50.890;8.054;2023-03-13T05:06:09;3.30;;;2.10;;
8952;SDS011;4511;50.890;8.054;2023-03-13T05:08:36;3.23;;;2.20;;
8952;SDS011;4511;50.890;8.054;2023-03-13T05:11:03;2.50;;;2.30;;
8952;SDS011;4511;50.890;8.054;2023-03-13T05:13:31;2.17;;;2.00;;
8952;SDS011;4511;50.890;8.054;2023-03-13T05:15:59;2.20;;;2.10;;
8952;SDS011;4511;50.890;8.054;2023-03-13T05:18:26;2.23;;;2.10;;
8952;SDS011;4511;50.890;8.054;2023-03-13T05:20:52;4.33;;;2.60;;
8952;SDS011;4511;50.890;8.054;2023-03-13T05:23:19;2.60;;;2.10;;
8952;SDS011;4511;50.890;8.054;2023-03-13T05:25:46;2.47;;;2.17;;
8952;SDS011;4511;50.890;8.054;2023-03-13T05:28:13;2.53;;;2.20;;
8952;SDS011;4511;50.890;8.054;2023-03-13T05:30:41;2.20;;;2.00;;
8952;SDS011;4511;50.890;8.054;2023-03-13T05:33:08;2.00;;;1.90;;
8952;SDS011;4511;50.890;8.054;2023-03-13T05:35:35;2.20;;;2.00;;
8952;SDS011;4511;50.890;8.054;2023-03-13T05:38:02;2.20;;;1.90;;
8952;SDS011;4511;50.890;8.054;2023-03-13T05:40:29;2.03;;;1.80;;
8952;SDS011;4511;50.890;8.054;2023-03-13T05:42:55;2.60;;;1.90;;
8952;SDS011;4511;50.890;8.054;2023-03-13T05:45:23;1.97;;;1.87;;
8952;SDS011;4511;50.890;8.054;2023-03-13T05:47:51;2.03;;;1.70;;
8952;SDS011;4511;50.890;8.054;2023-03-13T05:50:18;2.00;;;1.90;;
8952;SDS011;4511;50.890;8.054;2023-03-13T05:52:45;2.77;;;2.10;;
8952;SDS011;4511;50.890;8.054;2023-03-13T05:55:12;3.40;;;1.97;;
8952;SDS011;4511;50.890;8.054;2023-03-13T05:57:38;2.10;;;1.90;;
8952;SDS011;4511;50.890;8.054;2023-03-13T06:00:09;2.00;;;1.90;;
8952;SDS011;4511;50.890;8.054;2023-03-13T06:02:36;1.93;;;1.80;;
8952;SDS011;4511;50.890;8.054;2023-03-13T06:05:05;2.20;;;2.00;;
8952;SDS011;4511;50.890;8.054;2023-03-13T06:07:32;1.90;;;1.80;;
8952;SDS011;4511;50.890;8.054;2023-03-13T06:09:59;2.00;;;1.90;;
8952;SDS011;4511;50.890;8.054;2023-03-13T06:12:25;1.90;;;1.80;;
8952;SDS011;4511;50.890;8.054;2023-03-13T06:14:52;2.20;;;2.00;;
8952;SDS011;4511;50.890;8.054;2023-03-13T06:17:19;2.00;;;1.80;;
8952;SDS011;4511;50.890;8.054;2023-03-13T06:19:46;2.00;;;1.90;;
8952;SDS011;4511;50.890;8.054;2023-03-13T06:22:14;1.90;;;1.80;;
8952;SDS011;4511;50.890;8.054;2023-03-13T06:24:42;2.00;;;1.90;;
8952;SDS011;4511;50.890;8.054;2023-03-13T06:27:10;2.00;;;1.80;;
8952;SDS011;4511;50.890;8.054;2023-03-13T06:29:37;3.40;;;2.20;;
8952;SDS011;4511;50.890;8.054;2023-03-13T06:32:04;2.00;;;1.90;;
8952;SDS011;4511;50.890;8.054;2023-03-13T06:34:31;2.17;;;1.70;;
8952;SDS011;4511;50.890;8.054;2023-03-13T06:36:58;1.90;;;1.80;;
8952;SDS011;4511;50.890;8.054;2023-03-13T06:39:26;1.80;;;1.80;;
8952;SDS011;4511;50.890;8.054;2023-03-13T06:41:53;1.97;;;1.87;;
8952;SDS011;4511;50.890;8.054;2023-03-13T06:44:20;1.97;;;1.87;;
8952;SDS011;4511;50.890;8.054;2023-03-13T06:46:47;2.00;;;1.90;;
8952;SDS011;4511;50.890;8.054;2023-03-13T06:49:13;1.77;;;1.67;;
8952;SDS011;4511;50.890;8.054;2023-03-13T06:51:40;1.80;;;1.70;;
8952;SDS011;4511;50.890;8.054;2023-03-13T06:54:07;2.00;;;1.90;;
8952;SDS011;4511;50.890;8.054;2023-03-13T06:56:35;1.77;;;1.70;;
8952;SDS011;4511;50.890;8.054;2023-03-13T06:59:02;1.90;;;1.80;;
8952;SDS011;4511;50.890;8.054;2023-03-13T07:01:29;2.00;;;1.90;;
8952;SDS011;4511;50.890;8.054;2023-03-13T07:03:55;2.03;;;1.93;;
8952;SDS011;4511;50.890;8.054;2023-03-13T07:06:22;1.90;;;1.80;;
8952;SDS011;4511;50.890;8.054;2023-03-13T07:08:49;2.00;;;1.90;;
8952;SDS011;4511;50.890;8.054;2023-03-13T07:11:15;2.00;;;1.90;;
8952;SDS011;4511;50.890;8.054;2023-03-13T07:13:44;1.90;;;1.80;;
8952;SDS011;4511;50.890;8.054;2023-03-13T07:16:11;2.13;;;1.80;;
8952;SDS011;4511;50.890;8.054;2023-03-13T07:18:38;1.80;;;1.70;;
8952;SDS011;4511;50.890;8.054;2023-03-13T07:21:08;2.00;;;1.80;;
8952;SDS011;4511;50.890;8.054;2023-03-13T07:23:36;2.00;;;1.90;;
8952;SDS011;4511;50.890;8.054;2023-03-13T07:26:03;1.70;;;1.60;;
8952;SDS011;4511;50.890;8.054;2023-03-13T07:28:31;2.23;;;2.03;;
8952;SDS011;4511;50.890;8.054;2023-03-13T07:31:04;1.73;;;1.63;;
8952;SDS011;4511;50.890;8.054;2023-03-13T07:33:32;3.13;;;2.17;;
8952;SDS011;4511;50.890;8.054;2023-03-13T07:35:59;2.00;;;1.90;;
8952;SDS011;4511;50.890;8.054;2023-03-13T07:38:26;2.00;;;1.90;;
8952;SDS011;4511;50.890;8.054;2023-03-13T07:40:53;1.80;;;1.70;;
8952;SDS011;4511;50.890;8.054;2023-03-13T07:43:21;1.90;;;1.80;;
8952;SDS011;4511;50.890;8.054;2023-03-13T07:45:49;1.90;;;1.80;;
8952;SDS011;4511;50.890;8.054;2023-03-13T07:48:18;2.30;;;2.20;;
8952;SDS011;4511;50.890;8.054;2023-03-13T07:50:45;3.00;;;2.27;;
8952;SDS011;4511;50.890;8.054;2023-03-13T07:53:12;3.20;;;2.57;;
8952;SDS011;4511;50.890;8.054;2023-03-13T07:55:50;3.23;;;2.23;;
8952;SDS011;4511;50.890;8.054;2023-03-13T07:58:18;2.10;;;2.00;;
8952;SDS011;4511;50.890;8.054;2023-03-13T08:00:45;2.00;;;1.90;;
8952;SDS011;4511;50.890;8.054;2023-03-13T08:03:12;2.93;;;2.73;;
8952;SDS011;4511;50.890;8.054;2023-03-13T08:05:40;2.20;;;2.10;;
8952;SDS011;4511;50.890;8.054;2023-03-13T08:08:07;1.97;;;1.87;;
8952;SDS011;4511;50.890;8.054;2023-03-13T08:10:34;2.23;;;2.10;;
8952;SDS011;4511;50.890;8.054;2023-03-13T08:13:01;2.50;;;2.30;;
8952;SDS011;4511;50.890;8.054;2023-03-13T08:15:27;2.50;;;2.30;;
8952;SDS011;4511;50.890;8.054;2023-03-13T08:17:54;4.43;;;2.43;;
8952;SDS011;4511;50.890;8.054;2023-03-13T08:20:22;2.77;;;2.40;;
8952;SDS011;4511;50.890;8.054;2023-03-13T08:22:50;3.63;;;3.33;;
8952;SDS011;4511;50.890;8.054;2023-03-13T08:25:17;3.23;;;2.27;;
8952;SDS011;4511;50.890;8.054;2023-03-13T08:27:44;2.70;;;2.50;;
8952;SDS011;4511;50.890;8.054;2023-03-13T08:30:11;2.90;;;2.60;;
8952;SDS011;4511;50.890;8.054;2023-03-13T08:32:38;3.30;;;2.37;;
8952;SDS011;4511;50.890;8.054;2023-03-13T08:35:05;3.20;;;2.30;;
8952;SDS011;4511;50.890;8.054;2023-03-13T08:37:33;3.50;;;2.50;;
8952;SDS011;4511;50.890;8.054;2023-03-13T08:40:01;2.63;;;2.43;;
8952;SDS011;4511;50.890;8.054;2023-03-13T08:42:34;4.53;;;2.80;;
8952;SDS011;4511;50.890;8.054;2023-03-13T08:45:01;4.23;;;3.10;;
8952;SDS011;4511;50.890;8.054;2023-03-13T08:47:28;3.37;;;2.80;;
8952;SDS011;4511;50.890;8.054;2023-03-13T08:49:54;3.10;;;2.60;;
8952;SDS011;4511;50.890;8.054;2023-03-13T08:52:22;2.70;;;2.50;;
8952;SDS011;4511;50.890;8.054;2023-03-13T08:54:49;3.17;;;2.87;;
8952;SDS011;4511;50.890;8.054;2023-03-13T08:57:17;5.00;;;2.53;;
8952;SDS011;4511;50.890;8.054;2023-03-13T08:59:44;3.23;;;2.73;;
8952;SDS011;4511;50.890;8.054;2023-03-13T09:02:10;4.00;;;2.60;;
8952;SDS011;4511;50.890;8.054;2023-03-13T09:04:43;3.27;;;2.87;;
8952;SDS011;4511;50.890;8.054;2023-03-13T09:07:10;3.67;;;2.70;;
8952;SDS011;4511;50.890;8.054;2023-03-13T09:09:37;3.53;;;2.53;;
8952;SDS011;4511;50.890;8.054;2023-03-13T09:12:04;4.77;;;2.63;;
8952;SDS011;4511;50.890;8.054;2023-03-13T09:14:33;5.23;;;3.10;;
8952;SDS011;4511;50.890;8.054;2023-03-13T09:17:00;3.60;;;3.30;;
8952;SDS011;4511;50.890;8.054;2023-03-13T09:19:27;3.30;;;2.93;;
8952;SDS011;4511;50.890;8.054;2023-03-13T09:21:53;8.47;;;2.83;;
8952;SDS011;4511;50.890;8.054;2023-03-13T09:24:20;3.73;;;3.10;;
8952;SDS011;4511;50.890;8.054;2023-03-13T09:26:47;3.90;;;2.93;;
8952;SDS011;4511;50.890;8.054;2023-03-13T09:29:14;3.90;;;3.00;;
8952;SDS011;4511;50.890;8.054;2023-03-13T09:31:42;5.13;;;2.83;;
8952;SDS011;4511;50.890;8.054;2023-03-13T09:34:08;4.30;;;3.00;;
8952;SDS011;4511;50.890;8.054;2023-03-13T09:36:35;7.17;;;3.90;;
8952;SDS011;4511;50.890;8.054;2023-03-13T09:39:02;3.93;;;3.00;;
8952;SDS011;4511;50.890;8.054;2023-03-13T09:41:31;4.03;;;2.90;;
8952;SDS011;4511;50.890;8.054;2023-03-13T09:44:02;4.30;;;2.87;;
8952;SDS011;4511;50.890;8.054;2023-03-13T09:46:36;4.60;;;3.00;;
8952;SDS011;4511;50.890;8.054;2023-03-13T09:49:10;6.27;;;3.50;;
8952;SDS011;4511;50.890;8.054;2023-03-13T09:51:41;5.00;;;3.40;;
8952;SDS011;4511;50.890;8.054;2023-03-13T09:54:16;6.93;;;4.07;;
8952;SDS011;4511;50.890;8.054;2023-03-13T09:56:49;4.30;;;3.37;;
8952;SDS011;4511;50.890;8.054;2023-03-13T09:59:21;5.60;;;3.13;;
8952;SDS011;4511;50.890;8.054;2023-03-13T10:01:53;4.13;;;3.70;;
8952;SDS011;4511;50.890;8.054;2023-03-13T10:04:28;4.77;;;3.33;;
8952;SDS011;4511;50.890;8.054;2023-03-13T10:07:00;6.03;;;3.23;;
8952;SDS011;4511;50.890;8.054;2023-03-13T10:09:28;5.23;;;3.50;;
8952;SDS011;4511;50.890;8.054;2023-03-13T10:11:59;7.13;;;3.47;;
8952;SDS011;4511;50.890;8.054;2023-03-13T10:14:34;5.73;;;3.27;;
8952;SDS011;4511;50.890;8.054;2023-03-13T10:17:09;6.10;;;3.70;;
8952;SDS011;4511;50.890;8.054;2023-03-13T10:19:45;4.87;;;4.10;;
8952;SDS011;4511;50.890;8.054;2023-03-13T10:22:21;4.83;;;4.20;;
8952;SDS011;4511;50.890;8.054;2023-03-13T10:24:51;7.03;;;4.00;;
8952;SDS011;4511;50.890;8.054;2023-03-13T10:27:22;6.57;;;4.03;;
8952;SDS011;4511;50.890;8.054;2023-03-13T10:29:49;5.27;;;3.97;;
8952;SDS011;4511;50.890;8.054;2023-03-13T10:32:16;5.87;;;3.90;;
8952;SDS011;4511;50.890;8.054;2023-03-13T10:34:49;6.00;;;3.93;;
8952;SDS011;4511;50.890;8.054;2023-03-13T10:37:22;4.77;;;3.53;;
8952;SDS011;4511;50.890;8.054;2023-03-13T10:39:50;5.20;;;3.90;;
8952;SDS011;4511;50.890;8.054;2023-03-13T10:42:19;5.67;;;3.77;;
8952;SDS011;4511;50.890;8.054;2023-03-13T10:44:49;7.47;;;4.10;;
8952;SDS011;4511;50.890;8.054;2023-03-13T10:47:21;5.40;;;4.23;;
8952;SDS011;4511;50.890;8.054;2023-03-13T10:49:50;6.97;;;4.17;;
8952;SDS011;4511;50.890;8.054;2023-03-13T10:52:28;5.20;;;4.00;;
8952;SDS011;4511;50.890;8.054;2023-03-13T10:54:58;7.27;;;4.60;;
8952;SDS011;4511;50.890;8.054;2023-03-13T10:57:28;7.77;;;3.70;;
8952;SDS011;4511;50.890;8.054;2023-03-13T10:59:55;6.67;;;4.23;;
8952;SDS011;4511;50.890;8.054;2023-03-13T11:02:25;8.07;;;3.60;;
8952;SDS011;4511;50.890;8.054;2023-03-13T11:04:59;5.87;;;3.80;;
8952;SDS011;4511;50.890;8.054;2023-03-13T11:07:27;4.17;;;3.50;;
8952;SDS011;4511;50.890;8.054;2023-03-13T11:09:57;5.63;;;3.50;;
8952;SDS011;4511;50.890;8.054;2023-03-13T11:12:26;5.77;;;3.57;;
8952;SDS011;4511;50.890;8.054;2023-03-13T11:14:56;3.80;;;3.40;;
8952;SDS011;4511;50.890;8.054;2023-03-13T11:17:26;4.47;;;3.20;;
8952;SDS011;4511;50.890;8.054;2023-03-13T11:20:01;3.57;;;3.20;;
8952;SDS011;4511;50.890;8.054;2023-03-13T11:22:45;4.57;;;3.30;;
8952;SDS011;4511;50.890;8.054;2023-03-13T11:25:17;9.23;;;3.80;;
8952;SDS011;4511;50.890;8.054;2023-03-13T11:27:50;3.60;;;3.30;;
8952;SDS011;4511;50.890;8.054;2023-03-13T11:30:41;3.97;;;3.67;;
8952;SDS011;4511;50.890;8.054;2023-03-13T11:33:18;3.87;;;3.33;;
8952;SDS011;4511;50.890;8.054;2023-03-13T11:35:55;3.37;;;3.07;;
8952;SDS011;4511;50.890;8.054;2023-03-13T11:38:29;3.50;;;3.07;;
8952;SDS011;4511;50.890;8.054;2023-03-13T11:41:03;3.60;;;2.90;;
8952;SDS011;4511;50.890;8.054;2023-03-13T11:43:44;3.67;;;2.80;;
8952;SDS011;4511;50.890;8.054;2023-03-13T11:46:20;3.10;;;2.90;;
8952;SDS011;4511;50.890;8.054;2023-03-13T11:51:54;3.50;;;2.93;;
8952;SDS011;4511;50.890;8.054;2023-03-13T11:57:47;3.77;;;2.80;;
8952;SDS011;4511;50.890;8.054;2023-03-13T12:00:24;2.80;;;2.60;;
8952;SDS011;4511;50.890;8.054;2023-03-13T12:02:59;3.70;;;2.77;;
8952;SDS011;4511;50.890;8.054;2023-03-13T12:05:33;2.57;;;2.47;;
8952;SDS011;4511;50.890;8.054;2023-03-13T12:08:08;2.53;;;2.30;;
8952;SDS011;4511;50.890;8.054;2023-03-13T12:10:42;2.63;;;2.47;;
8952;SDS011;4511;50.890;8.054;2023-03-13T12:13:14;2.60;;;2.30;;
8952;SDS011;4511;50.890;8.054;2023-03-13T12:15:45;2.10;;;2.00;;
8952;SDS011;4511;50.890;8.054;2023-03-13T12:18:16;2.10;;;2.00;;
8952;SDS011;4511;50.890;8.054;2023-03-13T12:20:46;3.77;;;2.50;;
8952;SDS011;4511;50.890;8.054;2023-03-13T12:23:25;2.17;;;2.07;;
8952;SDS011;4511;50.890;8.054;2023-03-13T12:26:01;2.50;;;2.30;;
8952;SDS011;4511;50.890;8.054;2023-03-13T12:28:33;2.50;;;2.30;;
8952;SDS011;4511;50.890;8.054;2023-03-13T12:31:07;2.30;;;2.20;;
8952;SDS011;4511;50.890;8.054;2023-03-13T12:33:43;2.43;;;2.30;;
8952;SDS011;4511;50.890;8.054;2023-03-13T12:36:17;3.80;;;2.47;;
8952;SDS011;4511;50.890;8.054;2023-03-13T12:38:49;2.50;;;2.30;;
8952;SDS011;4511;50.890;8.054;2023-03-13T12:41:23;2.40;;;2.20;;
8952;SDS011;4511;50.890;8.054;2023-03-13T12:43:53;4.03;;;2.30;;
8952;SDS011;4511;50.890;8.054;2023-03-13T12:52:19;2.80;;;2.60;;
8952;SDS011;4511;50.890;8.054;2023-03-13T12:58:28;3.40;;;3.10;;
8952;SDS011;4511;50.890;8.054;2023-03-13T13:01:04;3.00;;;2.80;;
8952;SDS011;4511;50.890;8.054;2023-03-13T13:03:32;3.63;;;2.90;;
8952;SDS011;4511;50.890;8.054;2023-03-13T13:06:06;3.10;;;2.73;;
8952;SDS011;4511;50.890;8.054;2023-03-13T13:08:36;3.43;;;3.03;;
8952;SDS011;4511;50.890;8.054;2023-03-13T13:17:27;3.27;;;2.97;;
8952;SDS011;4511;50.890;8.054;2023-03-13T13:20:29;3.47;;;3.20;;
8952;SDS011;4511;50.890;8.054;2023-03-13T13:35:18;3.70;;;3.40;;
8952;SDS011;4511;50.890;8.054;2023-03-13T13:37:48;4.60;;;3.80;;
8952;SDS011;4511;50.890;8.054;2023-03-13T13:40:17;5.30;;;3.77;;
8952;SDS011;4511;50.890;8.054;2023-03-13T13:42:47;4.17;;;3.70;;
8952;SDS011;4511;50.890;8.054;2023-03-13T13:45:20;4.07;;;3.60;;
8952;SDS011;4511;50.890;8.054;2023-03-13T13:53:49;4.10;;;3.67;;
8952;SDS011;4511;50.890;8.054;2023-03-13T13:56:34;4.53;;;3.93;;
8952;SDS011;4511;50.890;8.054;2023-03-13T13:59:23;5.77;;;4.10;;
8952;SDS011;4511;50.890;8.054;2023-03-13T14:02:10;4.70;;;4.20;;
8952;SDS011;4511;50.890;8.054;2023-03-13T14:04:48;7.73;;;3.67;;
8952;SDS011;4511;50.890;8.054;2023-03-13T14:07:27;8.20;;;3.73;;
8952;SDS011;4511;50.890;8.054;2023-03-13T14:09:58;4.37;;;3.97;;
8952;SDS011;4511;50.890;8.054;2023-03-13T14:12:29;4.10;;;3.70;;
8952;SDS011;4511;50.890;8.054;2023-03-13T14:15:05;7.43;;;3.43;;
8952;SDS011;4511;50.890;8.054;2023-03-13T14:17:36;4.43;;;2.80;;
8952;SDS011;4511;50.890;8.054;2023-03-13T14:20:14;3.00;;;2.80;;
8952;SDS011;4511;50.890;8.054;2023-03-13T14:22:52;4.33;;;3.43;;
8952;SDS011;4511;50.890;8.054;2023-03-13T14:25:21;2.87;;;2.67;;
8952;SDS011;4511;50.890;8.054;2023-03-13T14:27:49;5.63;;;3.43;;
8952;SDS011;4511;50.890;8.054;2023-03-13T14:30:18;4.00;;;2.80;;
8952;SDS011;4511;50.890;8.054;2023-03-13T14:32:46;3.33;;;2.80;;
8952;SDS011;4511;50.890;8.054;2023-03-13T14:35:15;3.40;;;3.10;;
8952;SDS011;4511;50.890;8.054;2023-03-13T14:37:45;3.23;;;2.93;;
8952;SDS011;4511;50.890;8.054;2023-03-13T14:40:22;3.50;;;2.80;;
8952;SDS011;4511;50.890;8.054;2023-03-13T14:42:51;4.67;;;2.90;;
8952;SDS011;4511;50.890;8.054;2023-03-13T14:45:20;4.93;;;3.00;;
8952;SDS011;4511;50.890;8.054;2023-03-13T14:47:50;3.37;;;2.63;;
8952;SDS011;4511;50.890;8.054;2023-03-13T14:50:19;4.73;;;3.20;;
8952;SDS011;4511;50.890;8.054;2023-03-13T14:52:49;3.10;;;2.87;;
8952;SDS011;4511;50.890;8.054;2023-03-13T14:55:26;3.70;;;2.90;;
8952;SDS011;4511;50.890;8.054;2023-03-13T14:58:05;3.37;;;2.70;;
8952;SDS011;4511;50.890;8.054;2023-03-13T15:00:51;3.10;;;2.77;;
8952;SDS011;4511;50.890;8.054;2023-03-13T15:03:23;3.57;;;2.80;;
8952;SDS011;4511;50.890;8.054;2023-03-13T15:06:14;5.27;;;3.20;;
8952;SDS011;4511;50.890;8.054;2023-03-13T15:08:43;3.37;;;2.57;;
8952;SDS011;4511;50.890;8.054;2023-03-13T15:11:24;10.50;;;3.30;;
8952;SDS011;4511;50.890;8.054;2023-03-13T15:13:53;5.20;;;2.80;;
8952;SDS011;4511;50.890;8.054;2023-03-13T15:16:21;4.57;;;2.80;;
8952;SDS011;4511;50.890;8.054;2023-03-13T15:18:49;2.83;;;2.53;;
8952;SDS011;4511;50.890;8.054;2023-03-13T15:21:20;3.97;;;2.70;;
8952;SDS011;4511;50.890;8.054;2023-03-13T15:23:50;3.30;;;3.00;;
8952;SDS011;4511;50.890;8.054;2023-03-13T15:26:18;3.70;;;2.50;;
8952;SDS011;4511;50.890;8.054;2023-03-13T15:28:46;2.47;;;2.37;;
8952;SDS011;4511;50.890;8.054;2023-03-13T15:31:13;2.40;;;2.27;;
8952;SDS011;4511;50.890;8.054;2023-03-13T15:33:40;3.93;;;2.60;;
8952;SDS011;4511;50.890;8.054;2023-03-13T15:36:08;3.07;;;2.37;;
8952;SDS011;4511;50.890;8.054;2023-03-13T15:38:37;4.13;;;2.40;;
8952;SDS011;4511;50.890;8.054;2023-03-13T15:41:04;2.70;;;2.50;;
8952;SDS011;4511;50.890;8.054;2023-03-13T15:43:33;2.50;;;2.30;;
8952;SDS011;4511;50.890;8.054;2023-03-13T15:46:00;2.53;;;2.33;;
8952;SDS011;4511;50.890;8.054;2023-03-13T15:48:27;3.10;;;2.33;;
8952;SDS011;4511;50.890;8.054;2023-03-13T15:50:55;3.13;;;2.50;;
8952;SDS011;4511;50.890;8.054;2023-03-13T15:53:24;3.87;;;2.80;;
8952;SDS011;4511;50.890;8.054;2023-03-13T15:55:56;2.50;;;2.30;;
8952;SDS011;4511;50.890;8.054;2023-03-13T15:58:24;2.53;;;2.33;;
8952;SDS011;4511;50.890;8.054;2023-03-13T16:00:52;2.60;;;2.40;;
8952;SDS011;4511;50.890;8.054;2023-03-13T16:03:20;2.53;;;2.20;;
8952;SDS011;4511;50.890;8.054;2023-03-13T16:05:49;2.43;;;2.23;;
8952;SDS011;4511;50.890;8.054;2023-03-13T16:08:17;4.30;;;3.33;;
8952;SDS011;4511;50.890;8.054;2023-03-13T16:10:46;2.40;;;2.20;;
8952;SDS011;4511;50.890;8.054;2023-03-13T16:13:15;2.33;;;2.13;;